createdAt,value
2019-01-26T00:00:42.090Z,-0.20
2019-01-26T00:03:09.709Z,-0.20
2019-01-26T00:05:37.265Z,-0.20
2019-01-26T00:08:04.889Z,-0.20
2019-01-26T00:10:32.467Z,-0.20
2019-01-26T00:12:59.788Z,-0.20
2019-01-26T00:15:27.343Z,-0.20
2019-01-26T00:17:54.822Z,-0.20
2019-01-26T00:20:22.363Z,-0.20
2019-01-26T00:22:49.873Z,-0.20
2019-01-26T00:25:17.384Z,-0.20
2019-01-26T00:27:45.898Z,-0.10
2019-01-26T00:30:13.539Z,-0.20
2019-01-26T00:32:41.011Z,-0.10
2019-01-26T00:35:08.876Z,-0.10
2019-01-26T00:37:36.376Z,-0.20
2019-01-26T00:40:05.307Z,-0.20
2019-01-26T00:42:32.718Z,-0.20
2019-01-26T00:45:00.191Z,-0.20
2019-01-26T00:47:27.840Z,-0.20
2019-01-26T00:49:55.704Z,-0.20
2019-01-26T00:52:23.273Z,-0.30
2019-01-26T00:54:50.762Z,-0.30
2019-01-26T00:57:18.279Z,-0.30
2019-01-26T00:59:45.739Z,-0.30
2019-01-26T01:02:13.348Z,-0.30
2019-01-26T01:04:40.867Z,-0.30
2019-01-26T01:07:09.442Z,-0.30
2019-01-26T01:09:36.943Z,-0.30
2019-01-26T01:12:04.410Z,-0.30
2019-01-26T01:14:31.907Z,-0.30
2019-01-26T01:16:59.357Z,-0.30
2019-01-26T01:19:27.035Z,-0.30
2019-01-26T01:21:54.711Z,-0.30
2019-01-26T01:24:22.237Z,-0.20
2019-01-26T01:26:49.734Z,-0.20
2019-01-26T01:29:17.196Z,-0.20
2019-01-26T01:31:44.999Z,-0.10
2019-01-26T01:34:12.516Z,-0.10
2019-01-26T01:36:39.995Z,-0.10
2019-01-26T01:39:08.086Z,-0.10
2019-01-26T01:41:36.771Z,-0.10
2019-01-26T01:44:04.516Z,0.00
2019-01-26T01:46:31.943Z,0.00
2019-01-26T01:48:59.576Z,0.00
2019-01-26T01:51:27.143Z,0.00
2019-01-26T01:53:54.685Z,0.00
2019-01-26T01:56:22.157Z,0.00
2019-01-26T01:58:49.627Z,0.10
2019-01-26T02:01:17.160Z,0.10
2019-01-26T02:03:44.543Z,0.10
2019-01-26T02:06:11.909Z,0.10
2019-01-26T02:08:39.457Z,0.10
2019-01-26T02:11:06.800Z,0.10
2019-01-26T02:13:34.724Z,0.10
2019-01-26T02:16:02.173Z,0.10
2019-01-26T02:18:29.638Z,0.10
2019-01-26T02:20:57.226Z,0.10
2019-01-26T02:23:24.636Z,0.20
2019-01-26T02:25:52.013Z,0.20
2019-01-26T02:28:19.537Z,0.20
2019-01-26T02:30:47.051Z,0.20
2019-01-26T02:33:14.479Z,0.20
2019-01-26T02:35:41.943Z,0.20
2019-01-26T02:38:09.760Z,0.20
2019-01-26T02:40:38.368Z,0.30
2019-01-26T02:43:05.936Z,0.20
2019-01-26T02:45:33.390Z,0.30
2019-01-26T02:48:00.810Z,0.30
2019-01-26T02:50:28.233Z,0.30
2019-01-26T02:52:56.630Z,0.30
2019-01-26T02:55:24.200Z,0.30
2019-01-26T02:57:51.712Z,0.40
2019-01-26T03:00:21.451Z,0.40
2019-01-26T03:02:48.946Z,0.40
2019-01-26T03:05:16.641Z,0.40
2019-01-26T03:07:44.529Z,0.40
2019-01-26T03:10:14.024Z,0.50
2019-01-26T03:12:41.384Z,0.40
2019-01-26T03:15:11.001Z,0.50
2019-01-26T03:17:38.463Z,0.50
2019-01-26T03:20:08.153Z,0.60
2019-01-26T03:22:35.826Z,0.60
2019-01-26T03:25:04.391Z,0.60
2019-01-26T03:27:31.903Z,0.60
2019-01-26T03:29:59.436Z,0.60
2019-01-26T03:32:27.092Z,0.70
2019-01-26T03:34:54.539Z,0.70
2019-01-26T03:37:21.916Z,0.70
2019-01-26T03:39:49.446Z,0.70
2019-01-26T03:42:16.802Z,0.70
2019-01-26T03:44:44.239Z,0.80
2019-01-26T03:47:13.711Z,0.80
2019-01-26T03:49:41.084Z,0.80
2019-01-26T03:52:08.519Z,0.80
2019-01-26T03:54:35.991Z,0.80
2019-01-26T03:57:03.506Z,0.80
2019-01-26T03:59:30.988Z,0.80
2019-01-26T04:01:58.555Z,0.80
2019-01-26T04:04:27.121Z,0.80
2019-01-26T04:06:55.720Z,0.80
2019-01-26T04:09:23.186Z,0.90
2019-01-26T04:11:50.653Z,0.90
2019-01-26T04:14:18.969Z,0.90
2019-01-26T04:16:46.558Z,1.00
2019-01-26T04:19:14.069Z,1.00
2019-01-26T04:21:41.383Z,1.00
2019-01-26T04:24:08.961Z,1.00
2019-01-26T04:26:36.838Z,1.00
2019-01-26T04:29:04.632Z,1.00
2019-01-26T04:31:32.441Z,1.10
2019-01-26T04:33:59.923Z,1.10
2019-01-26T04:36:27.244Z,1.10
2019-01-26T04:38:54.727Z,1.20
2019-01-26T04:41:22.194Z,1.20
2019-01-26T04:43:49.659Z,1.20
2019-01-26T04:46:17.461Z,1.20
2019-01-26T04:48:45.040Z,1.20
2019-01-26T04:51:13.650Z,1.20
2019-01-26T04:53:41.255Z,1.20
2019-01-26T04:56:08.729Z,1.30
2019-01-26T04:58:37.358Z,1.30
2019-01-26T05:01:04.799Z,1.30
2019-01-26T05:03:32.263Z,1.30
2019-01-26T05:05:59.720Z,1.30
2019-01-26T05:08:27.191Z,1.30
2019-01-26T05:10:54.894Z,1.30
2019-01-26T05:13:22.343Z,1.30
2019-01-26T05:15:49.827Z,1.40
2019-01-26T05:18:17.164Z,1.40
2019-01-26T05:20:44.607Z,1.40
2019-01-26T05:23:12.086Z,1.40
2019-01-26T05:25:39.423Z,1.40
2019-01-26T05:28:06.943Z,1.40
2019-01-26T05:30:34.469Z,1.40
2019-01-26T05:33:01.961Z,1.50
2019-01-26T05:35:29.292Z,1.50
2019-01-26T05:37:56.622Z,1.50
2019-01-26T05:40:24.194Z,1.50
2019-01-26T05:42:51.732Z,1.50
2019-01-26T05:45:21.861Z,1.50
2019-01-26T05:47:49.755Z,1.50
2019-01-26T05:50:19.017Z,1.60
2019-01-26T05:52:46.500Z,1.60
2019-01-26T05:55:14.099Z,1.60
2019-01-26T05:57:41.594Z,1.60
2019-01-26T06:00:12.414Z,1.60
2019-01-26T06:02:40.169Z,1.60
2019-01-26T06:05:07.725Z,1.60
2019-01-26T06:07:35.195Z,1.70
2019-01-26T06:10:03.777Z,1.70
2019-01-26T06:12:31.237Z,1.70
2019-01-26T06:14:59.020Z,1.80
2019-01-26T06:17:26.460Z,1.70
2019-01-26T06:19:53.927Z,1.80
2019-01-26T06:22:21.406Z,1.80
2019-01-26T06:24:48.846Z,1.80
2019-01-26T06:27:16.319Z,1.80
2019-01-26T06:29:43.886Z,1.80
2019-01-26T06:32:11.731Z,1.80
2019-01-26T06:34:39.202Z,1.90
2019-01-26T06:37:06.652Z,1.90
2019-01-26T06:39:34.142Z,1.90
2019-01-26T06:42:01.586Z,1.90
2019-01-26T06:44:29.101Z,1.90
2019-01-26T06:46:56.550Z,1.90
2019-01-26T06:49:24.220Z,1.90
2019-01-26T06:51:54.489Z,1.90
2019-01-26T06:54:22.000Z,2.00
2019-01-26T06:56:49.466Z,1.90
2019-01-26T06:59:17.038Z,2.00
2019-01-26T07:01:44.563Z,2.00
2019-01-26T07:04:15.333Z,2.00
2019-01-26T07:07:02.646Z,2.00
2019-01-26T07:09:30.147Z,2.00
2019-01-26T07:11:57.654Z,2.00
2019-01-26T07:14:25.184Z,2.00
2019-01-26T07:16:52.667Z,2.00
2019-01-26T07:19:20.371Z,2.00
2019-01-26T07:21:48.849Z,2.00
2019-01-26T07:24:16.408Z,2.00
2019-01-26T07:26:43.834Z,2.10
2019-01-26T07:29:11.309Z,2.00
2019-01-26T07:31:40.023Z,2.10
2019-01-26T07:34:07.404Z,2.10
2019-01-26T07:36:34.766Z,2.10
2019-01-26T07:39:04.617Z,2.10
2019-01-26T07:41:32.674Z,2.10
2019-01-26T07:44:00.135Z,2.10
2019-01-26T07:46:27.919Z,2.10
2019-01-26T07:48:55.441Z,2.10
2019-01-26T07:51:22.916Z,2.20
2019-01-26T07:53:50.470Z,2.20
2019-01-26T07:56:17.946Z,2.20
2019-01-26T07:58:45.430Z,2.20
2019-01-26T08:01:12.790Z,2.20
2019-01-26T08:03:42.133Z,2.30
2019-01-26T08:06:09.615Z,2.30
2019-01-26T08:08:37.135Z,2.40
2019-01-26T08:11:04.672Z,2.30
2019-01-26T08:13:32.330Z,2.40
2019-01-26T08:15:59.728Z,2.40
2019-01-26T08:18:27.380Z,2.40
2019-01-26T08:20:54.808Z,2.50
2019-01-26T08:23:22.167Z,2.50
2019-01-26T08:25:49.641Z,2.50
2019-01-26T08:28:17.142Z,2.50
2019-01-26T08:30:44.618Z,2.50
2019-01-26T08:33:13.127Z,2.60
2019-01-26T08:35:40.612Z,2.60
2019-01-26T08:38:07.967Z,2.60
2019-01-26T08:40:35.463Z,2.60
2019-01-26T08:43:03.399Z,2.60
2019-01-26T08:45:30.891Z,2.60
2019-01-26T08:48:00.921Z,2.50
2019-01-26T08:50:28.276Z,2.50
2019-01-26T08:52:55.731Z,2.50
2019-01-26T08:55:23.327Z,2.60
2019-01-26T08:57:50.922Z,2.60
2019-01-26T09:00:20.220Z,2.50
2019-01-26T09:03:08.574Z,2.60
2019-01-26T09:05:49.988Z,2.60
2019-01-26T09:08:17.462Z,2.60
2019-01-26T09:10:44.929Z,2.60
2019-01-26T09:13:12.447Z,2.60
2019-01-26T09:15:39.952Z,2.60
2019-01-26T09:18:07.515Z,2.60
2019-01-26T09:20:34.991Z,2.60
2019-01-26T09:23:02.540Z,2.70
2019-01-26T09:25:29.999Z,2.70
2019-01-26T09:27:57.587Z,2.70
2019-01-26T09:30:25.142Z,2.80
2019-01-26T09:32:52.632Z,2.80
2019-01-26T09:35:21.234Z,2.80
2019-01-26T09:37:48.597Z,2.80
2019-01-26T09:40:16.286Z,2.80
2019-01-26T09:42:43.870Z,2.90
2019-01-26T09:45:12.758Z,2.90
2019-01-26T09:47:40.211Z,2.90
2019-01-26T09:50:08.310Z,3.00
2019-01-26T09:52:35.660Z,3.00
2019-01-26T09:55:04.767Z,3.10
2019-01-26T09:57:32.284Z,3.10
2019-01-26T09:59:59.740Z,3.10
2019-01-26T10:02:27.237Z,3.20
2019-01-26T10:04:56.132Z,3.20
2019-01-26T10:07:23.605Z,3.20
2019-01-26T10:09:51.082Z,3.30
2019-01-26T10:12:18.559Z,3.40
2019-01-26T10:14:46.046Z,3.40
2019-01-26T10:17:13.551Z,3.40
2019-01-26T10:19:41.019Z,3.50
2019-01-26T10:22:08.492Z,3.50
2019-01-26T10:24:36.100Z,3.60
2019-01-26T10:27:03.727Z,3.60
2019-01-26T10:29:31.178Z,3.70
2019-01-26T10:31:58.657Z,3.70
2019-01-26T10:34:26.172Z,3.70
2019-01-26T10:36:57.245Z,3.80
2019-01-26T10:39:24.766Z,3.80
2019-01-26T10:42:11.723Z,3.90
2019-01-26T10:44:39.354Z,4.00
2019-01-26T10:47:08.713Z,4.00
2019-01-26T10:49:36.424Z,4.00
2019-01-26T10:52:04.227Z,4.00
2019-01-26T10:54:31.738Z,4.00
2019-01-26T10:56:59.176Z,4.00
2019-01-26T10:59:26.646Z,4.10
2019-01-26T11:01:54.161Z,4.00
2019-01-26T11:04:21.630Z,4.10
2019-01-26T11:06:49.152Z,4.00
2019-01-26T11:09:16.487Z,4.00
2019-01-26T11:11:43.969Z,4.00
2019-01-26T11:14:11.588Z,4.00
2019-01-26T11:16:39.070Z,4.00
2019-01-26T11:19:08.045Z,4.00
2019-01-26T11:21:36.114Z,4.10
2019-01-26T11:24:03.705Z,4.10
2019-01-26T11:26:31.171Z,4.00
2019-01-26T11:28:58.524Z,4.00
2019-01-26T11:31:25.990Z,4.10
2019-01-26T11:33:53.444Z,4.10
2019-01-26T11:36:20.977Z,4.20
2019-01-26T11:38:48.756Z,4.20
2019-01-26T11:41:16.427Z,4.20
2019-01-26T11:43:44.032Z,4.20
2019-01-26T11:46:17.681Z,4.20
2019-01-26T11:48:47.225Z,4.20
2019-01-26T11:51:32.041Z,4.20
2019-01-26T11:53:59.571Z,4.20
2019-01-26T11:56:40.690Z,4.30
2019-01-26T11:59:08.305Z,4.30
2019-01-26T12:02:11.550Z,4.30
2019-01-26T12:05:04.891Z,4.30
2019-01-26T12:07:35.032Z,4.40
2019-01-26T12:10:02.651Z,4.30
2019-01-26T12:12:30.307Z,4.30
2019-01-26T12:14:57.791Z,4.30
2019-01-26T12:17:26.456Z,4.30
2019-01-26T12:19:53.811Z,4.40
2019-01-26T12:22:21.383Z,4.40
2019-01-26T12:24:48.944Z,4.40
2019-01-26T12:27:16.417Z,4.50
2019-01-26T12:29:46.115Z,4.50
2019-01-26T12:32:13.588Z,4.50
2019-01-26T12:34:41.043Z,4.60
2019-01-26T12:37:08.534Z,4.60
2019-01-26T12:39:36.001Z,4.60
2019-01-26T12:42:03.519Z,4.70
2019-01-26T12:44:31.008Z,4.70
2019-01-26T12:46:58.506Z,4.70
2019-01-26T12:49:29.679Z,4.80
2019-01-26T12:51:55.403Z,4.80
2019-01-26T12:54:22.883Z,4.70
2019-01-26T12:56:50.402Z,4.70
2019-01-26T12:59:17.791Z,4.80
2019-01-26T13:01:45.684Z,4.80
2019-01-26T13:04:14.942Z,4.80
2019-01-26T13:06:42.420Z,4.80
2019-01-26T13:09:10.277Z,4.80
2019-01-26T13:11:41.137Z,4.80
2019-01-26T13:14:09.627Z,4.80
2019-01-26T13:16:37.123Z,4.90
2019-01-26T13:19:04.652Z,4.90
2019-01-26T13:21:32.012Z,4.90
2019-01-26T13:23:59.431Z,4.90
2019-01-26T13:26:26.934Z,4.90
2019-01-26T13:28:54.440Z,5.00
2019-01-26T13:31:21.821Z,5.00
2019-01-26T13:33:49.285Z,5.00
2019-01-26T13:36:16.807Z,5.00
2019-01-26T13:38:44.305Z,5.00
2019-01-26T13:41:11.811Z,5.00
2019-01-26T13:43:39.288Z,5.00
2019-01-26T13:46:06.804Z,4.90
2019-01-26T13:48:34.255Z,4.90
2019-01-26T13:51:01.726Z,4.90
2019-01-26T13:53:29.200Z,4.90
2019-01-26T13:55:56.684Z,4.80
2019-01-26T13:58:24.179Z,4.80
2019-01-26T14:00:51.686Z,4.70
2019-01-26T14:03:19.411Z,4.70
2019-01-26T14:05:46.931Z,4.70
2019-01-26T14:08:14.392Z,4.60
2019-01-26T14:10:41.712Z,4.60
2019-01-26T14:13:09.089Z,4.60
2019-01-26T14:15:37.840Z,4.60
2019-01-26T14:18:05.534Z,4.50
2019-01-26T14:20:33.039Z,4.50
2019-01-26T14:23:00.611Z,4.50
2019-01-26T14:25:28.493Z,4.50
2019-01-26T14:27:55.975Z,4.40
2019-01-26T14:30:31.756Z,4.40
2019-01-26T14:32:59.276Z,4.50
2019-01-26T14:35:26.727Z,4.40
2019-01-26T14:37:54.230Z,4.40
2019-01-26T14:40:21.679Z,4.40
2019-01-26T14:42:54.261Z,4.40
2019-01-26T14:45:19.037Z,4.40
2019-01-26T14:47:47.501Z,4.40
2019-01-26T14:50:15.006Z,4.40
2019-01-26T14:52:42.481Z,4.40
2019-01-26T14:55:12.948Z,4.30
2019-01-26T14:57:40.443Z,4.40
2019-01-26T15:00:12.994Z,4.40
2019-01-26T15:02:40.531Z,4.40
2019-01-26T15:05:08.016Z,4.30
2019-01-26T15:07:35.482Z,4.30
2019-01-26T15:10:03.689Z,4.30
2019-01-26T15:12:31.098Z,4.30
2019-01-26T15:14:58.586Z,4.30
2019-01-26T15:17:25.973Z,4.30
2019-01-26T15:19:53.486Z,4.30
2019-01-26T15:22:22.626Z,4.30
2019-01-26T15:24:50.126Z,4.30
2019-01-26T15:27:17.657Z,4.30
2019-01-26T15:29:45.094Z,4.30
2019-01-26T15:32:12.931Z,4.30
2019-01-26T15:34:40.401Z,4.30
2019-01-26T15:37:07.838Z,4.30
2019-01-26T15:39:35.594Z,4.30
2019-01-26T15:42:03.104Z,4.30
2019-01-26T15:44:30.648Z,4.30
2019-01-26T15:46:58.109Z,4.30
2019-01-26T15:49:25.842Z,4.30
2019-01-26T15:51:53.393Z,4.30
2019-01-26T15:54:20.882Z,4.30
2019-01-26T15:56:48.337Z,4.30
2019-01-26T15:59:15.856Z,4.20
2019-01-26T16:01:43.958Z,4.20
2019-01-26T16:04:11.632Z,4.20
2019-01-26T16:06:39.102Z,4.20
2019-01-26T16:09:07.976Z,4.20
2019-01-26T16:11:35.836Z,4.20
2019-01-26T16:14:03.751Z,4.20
2019-01-26T16:16:31.205Z,4.20
2019-01-26T16:18:58.561Z,4.20
2019-01-26T16:21:26.087Z,4.20
2019-01-26T16:23:53.562Z,4.10
2019-01-26T16:26:21.034Z,4.10
2019-01-26T16:28:48.384Z,4.10
2019-01-26T16:31:15.880Z,4.20
2019-01-26T16:33:43.370Z,4.10
2019-01-26T16:36:10.818Z,4.10
2019-01-26T16:38:38.183Z,4.10
2019-01-26T16:41:05.643Z,4.00
2019-01-26T16:43:33.100Z,4.10
2019-01-26T16:46:00.602Z,4.00
2019-01-26T16:48:29.043Z,4.00
2019-01-26T16:50:56.543Z,4.00
2019-01-26T16:53:24.041Z,4.00
2019-01-26T16:55:51.547Z,4.00
2019-01-26T16:58:19.047Z,4.00
2019-01-26T17:00:48.779Z,3.90
2019-01-26T17:03:16.270Z,3.90
2019-01-26T17:05:43.729Z,3.90
2019-01-26T17:08:11.461Z,3.90
2019-01-26T17:10:39.083Z,3.80
2019-01-26T17:13:07.624Z,3.80
2019-01-26T17:15:35.222Z,3.80
2019-01-26T17:18:03.096Z,3.80
2019-01-26T17:20:35.066Z,3.80
2019-01-26T17:23:02.983Z,3.80
2019-01-26T17:25:30.473Z,3.80
2019-01-26T17:27:58.002Z,3.80
2019-01-26T17:30:31.042Z,3.70
2019-01-26T17:32:59.204Z,3.70
2019-01-26T17:35:26.539Z,3.70
2019-01-26T17:37:54.057Z,3.70
2019-01-26T17:40:23.043Z,3.80
2019-01-26T17:42:52.145Z,3.70
2019-01-26T17:45:20.263Z,3.70
2019-01-26T17:47:48.073Z,3.70
2019-01-26T17:50:18.171Z,3.70
2019-01-26T17:52:46.751Z,3.70
2019-01-26T17:55:14.884Z,3.70
2019-01-26T17:57:42.472Z,3.70
2019-01-26T18:00:42.933Z,3.70
2019-01-26T18:03:10.565Z,3.70
2019-01-26T18:05:39.324Z,3.70
2019-01-26T18:08:06.824Z,3.70
2019-01-26T18:10:34.220Z,3.70
2019-01-26T18:13:01.915Z,3.70
2019-01-26T18:15:29.399Z,3.70
2019-01-26T18:17:56.841Z,3.70
2019-01-26T18:20:26.746Z,3.70
2019-01-26T18:22:54.138Z,3.60
2019-01-26T18:25:23.546Z,3.70
2019-01-26T18:27:50.997Z,3.70
2019-01-26T18:30:21.152Z,3.70
2019-01-26T18:32:48.839Z,3.70
2019-01-26T18:35:16.450Z,3.70
2019-01-26T18:37:44.264Z,3.70
2019-01-26T18:40:14.908Z,3.70
2019-01-26T18:42:42.404Z,3.70
2019-01-26T18:45:11.491Z,3.70
2019-01-26T18:47:38.946Z,3.70
2019-01-26T18:50:10.080Z,3.70
2019-01-26T18:52:37.551Z,3.70
2019-01-26T18:55:05.410Z,3.70
2019-01-26T18:57:34.856Z,3.70
2019-01-26T19:00:04.268Z,3.70
2019-01-26T19:02:32.208Z,3.70
2019-01-26T19:05:03.682Z,3.70
2019-01-26T19:07:31.354Z,3.70
2019-01-26T19:09:59.050Z,3.70
2019-01-26T19:12:26.619Z,3.70
2019-01-26T19:14:54.187Z,3.70
2019-01-26T19:17:22.792Z,3.70
2019-01-26T19:19:50.652Z,3.70
2019-01-26T19:22:18.027Z,3.70
2019-01-26T19:24:45.729Z,3.60
2019-01-26T19:27:13.664Z,3.60
2019-01-26T19:29:41.260Z,3.60
2019-01-26T19:32:08.814Z,3.60
2019-01-26T19:34:36.510Z,3.60
2019-01-26T19:37:09.363Z,3.70
2019-01-26T19:39:35.192Z,3.60
2019-01-26T19:42:03.436Z,3.70
2019-01-26T19:44:30.815Z,3.60
2019-01-26T19:46:58.289Z,3.60
2019-01-26T19:49:26.199Z,3.60
2019-01-26T19:51:53.846Z,3.60
2019-01-26T19:54:21.390Z,3.60
2019-01-26T19:56:48.966Z,3.60
2019-01-26T19:59:16.963Z,3.50
2019-01-26T20:01:44.275Z,3.50
2019-01-26T20:04:11.803Z,3.50
2019-01-26T20:06:39.364Z,3.50
2019-01-26T20:09:09.475Z,3.50
2019-01-26T20:11:37.499Z,3.50
2019-01-26T20:14:04.984Z,3.40
2019-01-26T20:16:36.411Z,3.40
2019-01-26T20:19:01.983Z,3.40
2019-01-26T20:21:29.600Z,3.40
2019-01-26T20:23:57.215Z,3.40
2019-01-26T20:26:24.725Z,3.40
2019-01-26T20:28:52.201Z,3.40
2019-01-26T20:31:21.036Z,3.40
2019-01-26T20:33:49.011Z,3.40
2019-01-26T20:36:16.342Z,3.30
2019-01-26T20:38:43.987Z,3.30
2019-01-26T20:41:11.630Z,3.30
2019-01-26T20:43:40.524Z,3.30
2019-01-26T20:46:07.952Z,3.30
2019-01-26T20:48:35.487Z,3.30
2019-01-26T20:51:03.486Z,3.30
2019-01-26T20:53:30.947Z,3.30
2019-01-26T20:55:58.679Z,3.30
2019-01-26T20:58:26.210Z,3.30
2019-01-26T21:00:54.453Z,3.30
2019-01-26T21:03:21.948Z,3.30
2019-01-26T21:05:49.293Z,3.40
2019-01-26T21:08:16.804Z,3.30
2019-01-26T21:10:44.388Z,3.30
2019-01-26T21:13:16.202Z,3.40
2019-01-26T21:15:41.196Z,3.40
2019-01-26T21:18:09.011Z,3.40
2019-01-26T21:20:36.672Z,3.40
2019-01-26T21:23:04.675Z,3.40
2019-01-26T21:25:32.432Z,3.50
2019-01-26T21:27:59.919Z,3.40
2019-01-26T21:30:27.832Z,3.50
2019-01-26T21:32:56.414Z,3.50
2019-01-26T21:35:25.389Z,3.50
2019-01-26T21:37:52.826Z,3.50
2019-01-26T21:40:22.187Z,3.50
2019-01-26T21:42:50.484Z,3.50
2019-01-26T21:45:18.387Z,3.50
2019-01-26T21:47:45.859Z,3.50
2019-01-26T21:50:15.942Z,3.50
2019-01-26T21:52:45.095Z,3.50
2019-01-26T21:55:12.458Z,3.50
2019-01-26T21:57:39.916Z,3.50
2019-01-26T22:00:14.042Z,3.50
2019-01-26T22:02:41.609Z,3.50
2019-01-26T22:05:09.503Z,3.50
2019-01-26T22:07:38.103Z,3.60
2019-01-26T22:10:07.255Z,3.60
2019-01-26T22:12:34.791Z,3.60
2019-01-26T22:15:02.278Z,3.60
2019-01-26T22:17:33.282Z,3.60
2019-01-26T22:20:00.782Z,3.60
2019-01-26T22:22:28.252Z,3.70
2019-01-26T22:24:56.005Z,3.70
2019-01-26T22:27:23.535Z,3.70
2019-01-26T22:29:51.324Z,3.70
2019-01-26T22:32:19.165Z,3.70
2019-01-26T22:34:46.705Z,3.70
2019-01-26T22:37:14.339Z,3.70
2019-01-26T22:39:41.753Z,3.70
2019-01-26T22:42:09.751Z,3.70
2019-01-26T22:44:37.076Z,3.70
2019-01-26T22:47:04.904Z,3.70
2019-01-26T22:49:32.343Z,3.70
2019-01-26T22:51:59.839Z,3.70
2019-01-26T22:54:27.701Z,3.70
2019-01-26T22:56:55.244Z,3.80
2019-01-26T22:59:22.823Z,3.70
2019-01-26T23:01:50.323Z,3.70
2019-01-26T23:05:14.538Z,3.70
2019-01-26T23:07:52.157Z,3.70
2019-01-26T23:11:00.561Z,3.70
2019-01-26T23:13:50.672Z,3.70
2019-01-26T23:16:57.039Z,3.70
2019-01-26T23:19:54.506Z,3.70
2019-01-26T23:22:47.823Z,3.70
2019-01-26T23:26:11.279Z,3.70
2019-01-26T23:29:18.874Z,3.70
2019-01-26T23:31:46.351Z,3.80
2019-01-26T23:34:13.824Z,3.80
2019-01-26T23:36:41.174Z,3.80
2019-01-26T23:39:09.676Z,3.80
2019-01-26T23:41:37.177Z,3.80
2019-01-26T23:44:04.893Z,3.80
2019-01-26T23:46:32.353Z,3.70
2019-01-26T23:48:59.854Z,3.80
2019-01-26T23:51:27.360Z,3.70
2019-01-26T23:53:54.842Z,3.80
2019-01-26T23:56:22.450Z,3.70
2019-01-26T23:58:50.006Z,3.80
